Pires Coelho — CUPM6 — position and weather

sailwx.info

Track history (hours):
 
Tides and Currents Weather Stations Pressure Air Temp Water Temp Dewpoint Dewpoint Depression Visibility Wind Speed Wind Dir Waves Ship Positions

Pires Coelho

Last reported at 2015-Dec-30 08:14 UTC. Time now 2016-Feb-12 09:53 UTC.
Position N 37°08' W 008°32'.
Warning: this ship's position is 44 days out of date.

Length 27 m.

Type: Ship. MMSI: 263236000.

Date/timePositionNaut miles runAvg speedWind from/ knotsBaromVisibWave heightAir tempDewpointWater temp
2015-Dec-30 08:14N 37°08' W 008°32'0 0.0
2015-Dec-30 07:31N 37°08' W 008°32'0 0.0
2015-Dec-30 06:32N 37°08' W 008°32'0 0.0
2015-Dec-30 05:33N 37°08' W 008°32'0 0.0
2015-Dec-30 04:32N 37°08' W 008°32'0 0.0
2015-Dec-30 03:33N 37°08' W 008°32'0 0.0
2015-Dec-30 02:32N 37°08' W 008°32'0 0.0
2015-Dec-30 01:29N 37°08' W 008°32'0 0.0
2015-Dec-30 00:33N 37°08' W 008°32'0 0.0
2015-Dec-29 23:33N 37°08' W 008°32'0 0.0
2015-Dec-29 22:33N 37°08' W 008°32'0 0.0
2015-Dec-29 21:33N 37°08' W 008°32'1 0.7
2015-Dec-29 20:33N 37°07' W 008°32'9 9.0
2015-Dec-29 19:33N 37°01' W 008°24'10 9.9
2015-Dec-29 18:33N 36°53' W 008°16'6 6.0
2015-Dec-29 17:33N 36°49' W 008°10'3 3.1
2015-Dec-29 16:33N 36°49' W 008°14'3 2.8
2015-Dec-29 15:33N 36°50' W 008°18'3 2.8
2015-Dec-29 14:33N 36°50' W 008°21'1 0.9
2015-Dec-29 13:34N 36°50' W 008°20'3 3.0
2015-Dec-29 12:33N 36°49' W 008°16'3 3.3
2015-Dec-29 11:33N 36°49' W 008°12'3 2.7
2015-Dec-29 10:34N 36°49' W 008°09'2 2.4
2015-Dec-29 09:33N 36°50' W 008°06'3 3.0
2015-Dec-29 08:33N 36°50' W 008°02'3 3.1
2015-Dec-29 07:34N 36°51' W 007°59'3 3.1
2015-Dec-29 06:32N 36°52' W 007°55'1 1.1
2015-Dec-29 05:33N 36°51' W 007°56'1 0.5
2015-Dec-29 04:32N 36°51' W 007°56'2 1.5
2015-Dec-29 03:33N 36°50' W 007°58'0 0.5
2015-Dec-29 02:33N 36°50' W 007°57'3 2.9
2015-Dec-29 01:33N 36°49' W 008°00'3 3.0
2015-Dec-29 00:33N 36°48' W 008°04'3 3.0
2015-Dec-28 23:33N 36°47' W 008°08'3 3.3
2015-Dec-28 22:33N 36°47' W 008°12'5 4.6
2015-Dec-28 21:33N 36°51' W 008°08'3 2.9
2015-Dec-28 20:33N 36°53' W 008°06'3 2.8
2015-Dec-28 19:33N 36°52' W 008°02'3 3.0
2015-Dec-28 18:34N 36°52' W 007°59'8 8.1
2015-Dec-28 17:33N 36°58' W 007°52'4 3.8
2015-Dec-28 16:34N 37°02' W 007°50'0 0.0
2015-Dec-28 15:29N 37°02' W 007°50'0 0.0
2015-Dec-28 14:29N 37°02' W 007°50'0 0.0
2015-Dec-28 13:29N 37°02' W 007°50'0 0.0
2015-Dec-28 12:30N 37°02' W 007°50'0 0.0
2015-Dec-28 11:30N 37°02' W 007°50'0 0.0
2015-Dec-28 10:24N 37°02' W 007°50'0 0.0
2015-Dec-28 09:26N 37°02' W 007°50'0 0.0
2015-Dec-28 08:31N 37°02' W 007°50'0 0.0
2015-Dec-28 07:10N 37°02' W 007°50'0 0.0
2015-Dec-28 06:25N 37°02' W 007°50'0 0.0
2015-Dec-28 02:25N 37°02' W 007°50'0 0.0
2015-Dec-28 01:16N 37°02' W 007°50'0 0.0
2015-Dec-28 00:25N 37°02' W 007°50'0 0.0
2015-Dec-27 23:10N 37°02' W 007°50'0 0.0
2015-Dec-27 22:28N 37°02' W 007°50'0 0.0
2015-Dec-27 20:24N 37°02' W 007°50'0 0.0
2015-Dec-27 19:28N 37°02' W 007°50'0 0.0
2015-Dec-27 18:28N 37°02' W 007°50'0 0.0
2015-Dec-27 17:31N 37°02' W 007°50'0 0.0
2015-Dec-27 16:31N 37°02' W 007°50'0 0.0
2015-Dec-27 15:24N 37°02' W 007°50'7 7.8
2015-Dec-27 14:31N 36°55' W 007°53'4 4.1
2015-Dec-27 13:33N 36°52' W 007°56'3 2.9
2015-Dec-27 12:33N 36°51' W 007°59'3 2.8
2015-Dec-27 11:33N 36°51' W 008°03'3 2.9
2015-Dec-27 10:33N 36°52' W 008°06'1 1.0
2015-Dec-27 09:33N 36°52' W 008°05'3 2.7
2015-Dec-27 08:33N 36°51' W 008°01'3 2.9
2015-Dec-27 07:33N 36°52' W 007°58'2 1.9
2015-Dec-27 06:33N 36°52' W 007°56'5 4.6
2015-Dec-27 05:33N 36°52' W 008°01'6 5.5
2015-Dec-27 04:33N 36°51' W 008°08'5 5.2
2015-Dec-27 03:33N 36°50' W 008°15'3 2.6
2015-Dec-27 02:33N 36°51' W 008°18'3 2.8
2015-Dec-27 01:33N 36°51' W 008°21'3 2.8
2015-Dec-27 00:34N 36°52' W 008°25'3 2.9
2015-Dec-26 23:34N 36°53' W 008°28'2 1.8
2015-Dec-26 22:34N 36°55' W 008°29'3 2.9
2015-Dec-26 21:33N 36°53' W 008°26'3 2.9
2015-Dec-26 20:34N 36°52' W 008°23'3 2.9
2015-Dec-26 19:34N 36°51' W 008°20'3 3.3
2015-Dec-26 18:33N 36°49' W 008°23'2 1.5
2015-Dec-26 17:33N 36°49' W 008°25'3 2.9
2015-Dec-26 16:33N 36°49' W 008°28'2 2.4
2015-Dec-26 15:34N 36°50' W 008°31'3 2.9
2015-Dec-26 14:33N 36°52' W 008°30'7 7.0
2015-Dec-26 13:33N 36°59' W 008°31'9 8.6
2015-Dec-26 12:33N 37°08' W 008°32'  
2015-Dec-23 16:22N 37°08' W 008°32'0 0.0
2015-Dec-23 15:33N 37°08' W 008°32'0 0.0
2015-Dec-23 14:31N 37°08' W 008°32'0 0.0
2015-Dec-23 13:31N 37°08' W 008°32'0 0.0
2015-Dec-23 12:32N 37°08' W 008°32'0 0.0
2015-Dec-23 11:31N 37°08' W 008°32'0 0.0
2015-Dec-23 10:30N 37°08' W 008°32'0 0.0
2015-Dec-23 09:33N 37°08' W 008°32'0 0.0
2015-Dec-23 08:33N 37°08' W 008°32'0 0.0
2015-Dec-23 07:28N 37°08' W 008°32'0 0.0
2015-Dec-23 06:32N 37°08' W 008°32'0 0.0
2015-Dec-23 05:30N 37°08' W 008°32'0 0.0
2015-Dec-23 04:31N 37°08' W 008°32'0 0.0
2015-Dec-23 03:29N 37°08' W 008°32'0 0.0
2015-Dec-23 02:31N 37°08' W 008°32'0 0.0
2015-Dec-23 01:33N 37°08' W 008°32'0 0.0
2015-Dec-23 00:29N 37°08' W 008°32'0 0.0
2015-Dec-22 23:31N 37°08' W 008°32'0 0.0
2015-Dec-22 22:32N 37°08' W 008°32'0 0.0
2015-Dec-22 21:33N 37°08' W 008°32'0 0.0
2015-Dec-22 20:33N 37°08' W 008°32'0 0.0
2015-Dec-22 19:33N 37°08' W 008°32'0 0.0
2015-Dec-22 18:31N 37°08' W 008°32'0 0.0
2015-Dec-22 17:32N 37°08' W 008°32'0 0.1
2015-Dec-22 16:31N 37°08' W 008°32'0 0.0
2015-Dec-22 15:32N 37°08' W 008°32'0 0.0
2015-Dec-22 14:29N 37°08' W 008°32'0 0.0
2015-Dec-22 13:31N 37°08' W 008°32'0 0.0
2015-Dec-22 12:31N 37°08' W 008°32'0 0.0
2015-Dec-22 11:33N 37°08' W 008°32'0 0.1
2015-Dec-22 10:29N 37°08' W 008°32'0 0.0
2015-Dec-22 09:31N 37°08' W 008°32'0 0.0
2015-Dec-22 08:31N 37°08' W 008°32'0 0.0
2015-Dec-22 07:33N 37°08' W 008°32'0 0.0
2015-Dec-22 06:32N 37°08' W 008°32'0 0.0
2015-Dec-22 05:31N 37°08' W 008°32'4 3.9
2015-Dec-22 04:33N 37°05' W 008°33'10 9.9
2015-Dec-22 03:33N 36°56' W 008°40'10 9.7
2015-Dec-22 02:33N 36°48' W 008°46'0 0.5
2015-Dec-22 01:33N 36°48' W 008°46'0 0.3
2015-Dec-22 00:32N 36°47' W 008°46'0 0.0
2015-Dec-21 23:32N 36°47' W 008°46'0 0.1
2015-Dec-21 22:29N 36°47' W 008°46'0 0.1
2015-Dec-21 21:33N 36°47' W 008°46'0 0.3
2015-Dec-21 20:31N 36°48' W 008°46'0 0.2
2015-Dec-21 19:31N 36°48' W 008°46'0 0.0
2015-Dec-21 18:31N 36°48' W 008°46'2 2.1
2015-Dec-21 17:34N 36°47' W 008°48'3 2.8
2015-Dec-21 16:34N 36°47' W 008°52'3 3.0
2015-Dec-21 15:31N 36°47' W 008°56'3 2.8
2015-Dec-21 14:28N 36°47' W 008°59'1 1.0
2015-Dec-21 13:25N 36°47' W 008°58'0 0.6
2015-Dec-21 12:34N 36°47' W 008°57'3 2.8
2015-Dec-21 11:31N 36°47' W 008°54'1 1.1
2015-Dec-21 10:34N 36°48' W 008°53'3 2.7
2015-Dec-21 09:33N 36°47' W 008°56'3 2.8
2015-Dec-21 08:33N 36°47' W 008°59'3 3.3
2015-Dec-21 07:31N 36°46' W 009°04'5 5.0
2015-Dec-21 06:31N 36°50' W 009°07'1 1.2
2015-Dec-21 05:31N 36°52' W 009°06'3 2.8
2015-Dec-21 04:28N 36°54' W 009°06'3 2.9
2015-Dec-21 03:31N 36°57' W 009°07'3 2.8
2015-Dec-21 02:28N 36°60' W 009°07'1 0.6
2015-Dec-21 01:28N 37°01' W 009°07'1 1.3
2015-Dec-21 00:28N 36°59' W 009°07'3 2.8
2015-Dec-20 23:31N 36°57' W 009°07'3 2.9
2015-Dec-20 22:28N 36°54' W 009°06'3 2.7
2015-Dec-20 21:32N 36°51' W 009°06'4 3.3
2015-Dec-20 20:28N 36°48' W 009°08'1 0.6
2015-Dec-20 19:28N 36°48' W 009°08'3 2.8
2015-Dec-20 18:31N 36°50' W 009°07'3 2.9
2015-Dec-20 17:28N 36°53' W 009°06'3 2.8
2015-Dec-20 16:31N 36°55' W 009°07'3 3.0
2015-Dec-20 15:31N 36°58' W 009°07'3 3.0
2015-Dec-20 14:31N 37°01' W 009°07'8 8.2
2015-Dec-20 13:31N 37°07' W 009°15'  
Track history (hours):
 
Tides and Currents Weather Stations Pressure Air Temp Water Temp Dewpoint Dewpoint Depression Visibility Wind Speed Wind Dir Waves Ship Positions

Pires Coelho

Last reported at 2015-Dec-30 08:14 UTC. Time now 2016-Feb-12 09:53 UTC.
Position N 37°08' W 008°32'.
Warning: this ship's position is 44 days out of date.

Length 27 m.

Type: Ship. MMSI: 263236000.

Date/timePositionNaut miles runAvg speedWind from/ knotsBaromVisibWave heightAir tempDewpointWater temp
2015-Dec-30 08:14N 37°08' W 008°32'0 0.0
2015-Dec-30 07:31N 37°08' W 008°32'0 0.0
2015-Dec-30 06:32N 37°08' W 008°32'0 0.0
2015-Dec-30 05:33N 37°08' W 008°32'0 0.0
2015-Dec-30 04:32N 37°08' W 008°32'0 0.0
2015-Dec-30 03:33N 37°08' W 008°32'0 0.0
2015-Dec-30 02:32N 37°08' W 008°32'0 0.0
2015-Dec-30 01:29N 37°08' W 008°32'0 0.0
2015-Dec-30 00:33N 37°08' W 008°32'0 0.0
2015-Dec-29 23:33N 37°08' W 008°32'0 0.0
2015-Dec-29 22:33N 37°08' W 008°32'0 0.0
2015-Dec-29 21:33N 37°08' W 008°32'1 0.7
2015-Dec-29 20:33N 37°07' W 008°32'9 9.0
2015-Dec-29 19:33N 37°01' W 008°24'10 9.9
2015-Dec-29 18:33N 36°53' W 008°16'6 6.0
2015-Dec-29 17:33N 36°49' W 008°10'3 3.1
2015-Dec-29 16:33N 36°49' W 008°14'3 2.8
2015-Dec-29 15:33N 36°50' W 008°18'3 2.8
2015-Dec-29 14:33N 36°50' W 008°21'1 0.9
2015-Dec-29 13:34N 36°50' W 008°20'3 3.0
2015-Dec-29 12:33N 36°49' W 008°16'3 3.3
2015-Dec-29 11:33N 36°49' W 008°12'3 2.7
2015-Dec-29 10:34N 36°49' W 008°09'2 2.4
2015-Dec-29 09:33N 36°50' W 008°06'3 3.0
2015-Dec-29 08:33N 36°50' W 008°02'3 3.1
2015-Dec-29 07:34N 36°51' W 007°59'3 3.1
2015-Dec-29 06:32N 36°52' W 007°55'1 1.1
2015-Dec-29 05:33N 36°51' W 007°56'1 0.5
2015-Dec-29 04:32N 36°51' W 007°56'2 1.5
2015-Dec-29 03:33N 36°50' W 007°58'0 0.5
2015-Dec-29 02:33N 36°50' W 007°57'3 2.9
2015-Dec-29 01:33N 36°49' W 008°00'3 3.0
2015-Dec-29 00:33N 36°48' W 008°04'3 3.0
2015-Dec-28 23:33N 36°47' W 008°08'3 3.3
2015-Dec-28 22:33N 36°47' W 008°12'5 4.6
2015-Dec-28 21:33N 36°51' W 008°08'3 2.9
2015-Dec-28 20:33N 36°53' W 008°06'3 2.8
2015-Dec-28 19:33N 36°52' W 008°02'3 3.0
2015-Dec-28 18:34N 36°52' W 007°59'8 8.1
2015-Dec-28 17:33N 36°58' W 007°52'4 3.8
2015-Dec-28 16:34N 37°02' W 007°50'0 0.0
2015-Dec-28 15:29N 37°02' W 007°50'0 0.0
2015-Dec-28 14:29N 37°02' W 007°50'0 0.0
2015-Dec-28 13:29N 37°02' W 007°50'0 0.0
2015-Dec-28 12:30N 37°02' W 007°50'0 0.0
2015-Dec-28 11:30N 37°02' W 007°50'0 0.0
2015-Dec-28 10:24N 37°02' W 007°50'0 0.0
2015-Dec-28 09:26N 37°02' W 007°50'0 0.0
2015-Dec-28 08:31N 37°02' W 007°50'0 0.0
2015-Dec-28 07:10N 37°02' W 007°50'0 0.0
2015-Dec-28 06:25N 37°02' W 007°50'0 0.0
2015-Dec-28 02:25N 37°02' W 007°50'0 0.0
2015-Dec-28 01:16N 37°02' W 007°50'0 0.0
2015-Dec-28 00:25N 37°02' W 007°50'0 0.0
2015-Dec-27 23:10N 37°02' W 007°50'0 0.0
2015-Dec-27 22:28N 37°02' W 007°50'0 0.0
2015-Dec-27 20:24N 37°02' W 007°50'0 0.0
2015-Dec-27 19:28N 37°02' W 007°50'0 0.0
2015-Dec-27 18:28N 37°02' W 007°50'0 0.0
2015-Dec-27 17:31N 37°02' W 007°50'0 0.0
2015-Dec-27 16:31N 37°02' W 007°50'0 0.0
2015-Dec-27 15:24N 37°02' W 007°50'7 7.8
2015-Dec-27 14:31N 36°55' W 007°53'4 4.1
2015-Dec-27 13:33N 36°52' W 007°56'3 2.9
2015-Dec-27 12:33N 36°51' W 007°59'3 2.8
2015-Dec-27 11:33N 36°51' W 008°03'3 2.9
2015-Dec-27 10:33N 36°52' W 008°06'1 1.0
2015-Dec-27 09:33N 36°52' W 008°05'3 2.7
2015-Dec-27 08:33N 36°51' W 008°01'3 2.9
2015-Dec-27 07:33N 36°52' W 007°58'2 1.9
2015-Dec-27 06:33N 36°52' W 007°56'5 4.6
2015-Dec-27 05:33N 36°52' W 008°01'6 5.5
2015-Dec-27 04:33N 36°51' W 008°08'5 5.2
2015-Dec-27 03:33N 36°50' W 008°15'3 2.6
2015-Dec-27 02:33N 36°51' W 008°18'3 2.8
2015-Dec-27 01:33N 36°51' W 008°21'3 2.8
2015-Dec-27 00:34N 36°52' W 008°25'3 2.9
2015-Dec-26 23:34N 36°53' W 008°28'2 1.8
2015-Dec-26 22:34N 36°55' W 008°29'3 2.9
2015-Dec-26 21:33N 36°53' W 008°26'3 2.9
2015-Dec-26 20:34N 36°52' W 008°23'3 2.9
2015-Dec-26 19:34N 36°51' W 008°20'3 3.3
2015-Dec-26 18:33N 36°49' W 008°23'2 1.5
2015-Dec-26 17:33N 36°49' W 008°25'3 2.9
2015-Dec-26 16:33N 36°49' W 008°28'2 2.4
2015-Dec-26 15:34N 36°50' W 008°31'3 2.9
2015-Dec-26 14:33N 36°52' W 008°30'7 7.0
2015-Dec-26 13:33N 36°59' W 008°31'9 8.6
2015-Dec-26 12:33N 37°08' W 008°32'  
2015-Dec-23 16:22N 37°08' W 008°32'0 0.0
2015-Dec-23 15:33N 37°08' W 008°32'0 0.0
2015-Dec-23 14:31N 37°08' W 008°32'0 0.0
2015-Dec-23 13:31N 37°08' W 008°32'0 0.0
2015-Dec-23 12:32N 37°08' W 008°32'0 0.0
2015-Dec-23 11:31N 37°08' W 008°32'0 0.0
2015-Dec-23 10:30N 37°08' W 008°32'0 0.0
2015-Dec-23 09:33N 37°08' W 008°32'0 0.0
2015-Dec-23 08:33N 37°08' W 008°32'0 0.0
2015-Dec-23 07:28N 37°08' W 008°32'0 0.0
2015-Dec-23 06:32N 37°08' W 008°32'0 0.0
2015-Dec-23 05:30N 37°08' W 008°32'0 0.0
2015-Dec-23 04:31N 37°08' W 008°32'0 0.0
2015-Dec-23 03:29N 37°08' W 008°32'0 0.0
2015-Dec-23 02:31N 37°08' W 008°32'0 0.0
2015-Dec-23 01:33N 37°08' W 008°32'0 0.0
2015-Dec-23 00:29N 37°08' W 008°32'0 0.0
2015-Dec-22 23:31N 37°08' W 008°32'0 0.0
2015-Dec-22 22:32N 37°08' W 008°32'0 0.0
2015-Dec-22 21:33N 37°08' W 008°32'0 0.0
2015-Dec-22 20:33N 37°08' W 008°32'0 0.0
2015-Dec-22 19:33N 37°08' W 008°32'0 0.0
2015-Dec-22 18:31N 37°08' W 008°32'0 0.0
2015-Dec-22 17:32N 37°08' W 008°32'0 0.1
2015-Dec-22 16:31N 37°08' W 008°32'0 0.0
2015-Dec-22 15:32N 37°08' W 008°32'0 0.0
2015-Dec-22 14:29N 37°08' W 008°32'0 0.0
2015-Dec-22 13:31N 37°08' W 008°32'0 0.0
2015-Dec-22 12:31N 37°08' W 008°32'0 0.0
2015-Dec-22 11:33N 37°08' W 008°32'0 0.1
2015-Dec-22 10:29N 37°08' W 008°32'0 0.0
2015-Dec-22 09:31N 37°08' W 008°32'0 0.0
2015-Dec-22 08:31N 37°08' W 008°32'0 0.0
2015-Dec-22 07:33N 37°08' W 008°32'0 0.0
2015-Dec-22 06:32N 37°08' W 008°32'0 0.0
2015-Dec-22 05:31N 37°08' W 008°32'4 3.9
2015-Dec-22 04:33N 37°05' W 008°33'10 9.9
2015-Dec-22 03:33N 36°56' W 008°40'10 9.7
2015-Dec-22 02:33N 36°48' W 008°46'0 0.5
2015-Dec-22 01:33N 36°48' W 008°46'0 0.3
2015-Dec-22 00:32N 36°47' W 008°46'0 0.0
2015-Dec-21 23:32N 36°47' W 008°46'0 0.1
2015-Dec-21 22:29N 36°47' W 008°46'0 0.1
2015-Dec-21 21:33N 36°47' W 008°46'0 0.3
2015-Dec-21 20:31N 36°48' W 008°46'0 0.2
2015-Dec-21 19:31N 36°48' W 008°46'0 0.0
2015-Dec-21 18:31N 36°48' W 008°46'2 2.1
2015-Dec-21 17:34N 36°47' W 008°48'3 2.8
2015-Dec-21 16:34N 36°47' W 008°52'3 3.0
2015-Dec-21 15:31N 36°47' W 008°56'3 2.8
2015-Dec-21 14:28N 36°47' W 008°59'1 1.0
2015-Dec-21 13:25N 36°47' W 008°58'0 0.6
2015-Dec-21 12:34N 36°47' W 008°57'3 2.8
2015-Dec-21 11:31N 36°47' W 008°54'1 1.1
2015-Dec-21 10:34N 36°48' W 008°53'3 2.7
2015-Dec-21 09:33N 36°47' W 008°56'3 2.8
2015-Dec-21 08:33N 36°47' W 008°59'3 3.3
2015-Dec-21 07:31N 36°46' W 009°04'5 5.0
2015-Dec-21 06:31N 36°50' W 009°07'1 1.2
2015-Dec-21 05:31N 36°52' W 009°06'3 2.8
2015-Dec-21 04:28N 36°54' W 009°06'3 2.9
2015-Dec-21 03:31N 36°57' W 009°07'3 2.8
2015-Dec-21 02:28N 36°60' W 009°07'1 0.6
2015-Dec-21 01:28N 37°01' W 009°07'1 1.3
2015-Dec-21 00:28N 36°59' W 009°07'3 2.8
2015-Dec-20 23:31N 36°57' W 009°07'3 2.9
2015-Dec-20 22:28N 36°54' W 009°06'3 2.7
2015-Dec-20 21:32N 36°51' W 009°06'4 3.3
2015-Dec-20 20:28N 36°48' W 009°08'1 0.6
2015-Dec-20 19:28N 36°48' W 009°08'3 2.8
2015-Dec-20 18:31N 36°50' W 009°07'3 2.9
2015-Dec-20 17:28N 36°53' W 009°06'3 2.8
2015-Dec-20 16:31N 36°55' W 009°07'3 3.0
2015-Dec-20 15:31N 36°58' W 009°07'3 3.0
2015-Dec-20 14:31N 37°01' W 009°07'8 8.2
2015-Dec-20 13:31N 37°07' W 009°15'  

Dump ship's entire track history